Terminal Aerodrome Forecast
Issued by NWS Wakefield, VA

Home | Current Version | Previous Version | Text Only | Print | Product List | Glossary On
Versions: 1 2 3 4 5 6 7 8 9 10 11 12 13 14 15 16
000
FTUS41 KAKQ 312300 RRA
TAFORF
TAF
KORF 312341Z 0100/0124 01010KT P6SM BKN040 BKN080
     FM011000 02008KT P6SM BKN025
     FM011500 36013G19KT 6SM -RA BKN012
     FM012000 36020G28KT 4SM -RA BR OVC010=

USA.gov is the U.S. government's official web portal to all federal, state and local government web resources and services.